Latest Weather Observations for Coolangatta

IDQ60801

Issued at 8:32 pm EST Saturday 30 May 2015 (issued every 30 minutes, with the page automatically refreshed every 10 minutes)

About weather observations | Map of weather stations | Latest weather observations for QLD | Other Formats
Station Details ID: 040717 Name: COOLANGATTA Lat: -28.17 Lon: 153.51 Height: 4.0 m
Data from the previous 72 hours. | See also: Recent months at Coolangatta
Date/Time
EST
Temp
°C
App
Temp
°C
Dew
Point
Rel
Hum
%
Delta-T
°C
Wind Press
QNH
hPa
Press
MSL
hPa
Rain
since 9 am
mm
Dir
 
Spd
km/h
Gust
km/h
Spd
kts
Gust
kts
30/08:30pm 17.5 18.5 16.4 93 0.7 W 6 7 3 4 1019.2 1019.2 0.0
30/08:00pm 18.1 18.8 17.1 94 0.6 WSW 9 9 5 5 1019.2 1019.2 0.0
30/07:30pm 18.1 19.3 16.8 92 0.8 WSW 6 7 3 4 1019.2 1019.2 0.0
30/07:00pm 18.5 19.6 17.2 92 0.8 WSW 7 7 4 4 1019.3 1019.3 0.0
30/06:30pm 18.7 19.8 17.2 91 0.9 W 7 9 4 5 1019.2 1019.2 0.0
30/06:00pm 19.1 21.5 16.9 87 1.3 CALM 0 0 0 0 1018.9 1018.9 0.0
30/05:30pm 19.8 20.9 16.6 82 1.9 NNE 6 9 3 5 1018.7 1018.7 0.0
30/05:00pm 21.3 22.5 16.9 76 2.7 ENE 6 9 3 5 1018.7 1018.7 0.0
30/04:30pm 21.8 22.5 17.0 74 2.9 NE 9 11 5 6 1018.5 1018.5 0.0
30/04:00pm 22.4 23.2 17.3 73 3.1 ENE 9 11 5 6 1018.5 1018.5 0.0
30/03:30pm 22.1 22.0 17.0 73 3.1 NE 13 15 7 8 1018.4 1018.4 0.0
30/03:00pm 22.8 22.9 16.4 67 3.9 NE 11 15 6 8 1018.3 1018.3 0.0
30/02:30pm 23.2 23.3 17.4 70 3.6 NE 13 17 7 9 1018.3 1018.3 0.0
30/02:00pm 23.3 22.9 17.1 68 3.8 NE 15 19 8 10 1018.4 1018.4 0.0
30/01:30pm 23.2 22.6 16.7 67 4.0 NE 15 19 8 10 1018.8 1018.8 0.0
30/01:00pm 23.7 23.4 16.5 64 4.4 ENE 13 17 7 9 1019.3 1019.3 0.0
30/12:30pm 23.5 22.7 16.1 63 4.5 NE 15 17 8 9 1019.5 1019.5 0.0
30/12:00pm 23.4 22.1 15.7 62 4.6 NE 17 20 9 11 1019.7 1019.7 0.0
30/11:30am 23.7 22.7 15.7 61 4.8 NE 15 19 8 10 1020.1 1020.1 0.0
30/11:00am 23.9 24.8 16.2 62 4.7 S 6 11 3 6 1020.9 1020.9 0.0
30/10:30am 23.3 23.6 16.1 64 4.4 SE 9 13 5 7 1021.7 1021.7 0.0
30/10:00am 22.9 22.6 16.4 67 3.9 SSE 13 15 7 8 1022.1 1022.1 0.0
30/09:00am 19.8 22.0 17.4 86 1.5 SSW 2 9 1 5 1022.5 1022.5 0.0
30/08:00am 17.3 18.9 16.8 97 0.3 SSW 4 6 2 3 1022.2 1022.2 0.0
30/07:30am 16.3 17.1 15.8 97 0.3 SW 6 7 3 4 1022.1 1022.1 0.0
30/07:02am 15.7 16.6 15.2 97 0.3 WSW 4 9 2 5 1021.9 1021.9 0.0
30/07:00am 15.5 16.7 15.0 97 0.3 WSW 2 9 1 5 1021.9 1021.9 0.0
30/06:30am 15.2 15.0 14.7 97 0.3 WSW 9 9 5 5 1021.7 1021.7 0.0
30/06:20am 14.7 15.6 14.1 96 0.3 WSW 2 9 1 5 1021.5 1021.5 0.0
30/05:55am 15.0 16.4 14.5 97 0.3 CALM 0 0 0 0 1021.1 1021.1 0.0
30/05:30am 14.5 15.7 13.9 96 0.3 CALM 0 0 0 0 1020.8 1020.8 0.0
30/05:00am 15.3 16.7 14.5 95 0.5 CALM 0 0 0 0 1020.5 1020.5 0.0
30/04:52am 14.7 15.9 13.7 94 0.6 CALM 0 0 0 0 1020.5 1020.5 0.0
30/04:30am 15.2 16.5 14.2 94 0.6 CALM 0 0 0 0 1020.4 1020.4 0.0
30/04:00am 15.8 16.0 14.8 94 0.6 WSW 7 9 4 5 1020.5 1020.5 0.0
30/03:30am 16.1 16.0 15.0 93 0.6 NW 9 11 5 6 1020.6 1020.6 0.0
30/03:20am 16.1 15.7 15.1 94 0.6 NW 11 11 6 6 1020.6 1020.6 0.0
30/03:03am 15.9 16.4 14.9 94 0.6 NW 6 7 3 4 1020.9 1020.9 0.0
30/03:02am 15.9 16.4 14.9 94 0.6 NW 6 7 3 4 1020.9 1020.9 0.0
30/03:00am 15.9 16.7 14.9 94 0.6 NW 4 7 2 4 1020.9 1020.9 0.0
30/02:45am 16.0 16.3 15.0 94 0.6 NW 7 9 4 5 1020.9 1020.9 0.0
30/02:32am 15.6 15.7 14.5 93 0.6 NNW 7 7 4 4 1021.0 1021.0 0.0
30/02:30am 15.5 15.6 14.4 93 0.6 NNW 7 7 4 4 1021.0 1021.0 0.0
30/02:11am 16.2 17.5 15.2 94 0.6 NNW 2 6 1 3 1021.0 1021.0 0.0
30/02:00am 16.1 17.3 15.0 93 0.6 W 2 6 1 3 1021.1 1021.1 0.0
30/01:50am 16.4 18.1 15.3 93 0.6 CALM 0 2 0 1 1021.2 1021.2 0.0
30/01:35am 16.2 17.1 15.1 93 0.6 WSW 4 7 2 4 1021.4 1021.4 0.0
30/01:30am 16.1 17.3 14.8 92 0.7 WSW 2 7 1 4 1021.3 1021.3 0.0
30/01:00am 16.4 16.8 15.3 93 0.6 WSW 7 9 4 5 1021.5 1021.5 0.0
30/12:30am 16.5 16.6 15.4 93 0.6 NNW 9 11 5 6 1021.4 1021.4 0.0
30/12:00am 16.4 17.4 15.3 93 0.6 NW 4 7 2 4 1021.9 1021.9 0.0
 
Date/Time
EST
Temp
°C
App
Temp
°C
Dew
Point
Rel
Hum
%
Delta-T
°C
Wind Press
QNH
hPa
Press
MSL
hPa
Rain
since 9 am
mm
Dir
 
Spd
km/h
Gust
km/h
Spd
kts
Gust
kts
29/11:30pm 16.7 17.4 15.6 93 0.6 WNW 6 7 3 4 1022.3 1022.3 0.0
29/11:00pm 16.7 17.2 15.6 93 0.6 WNW 7 9 4 5 1022.3 1022.3 0.0
29/10:30pm 17.2 18.0 15.9 92 0.8 W 6 7 3 4 1022.6 1022.6 0.0
29/10:00pm 17.2 17.8 15.2 88 1.2 WNW 6 7 3 4 1022.6 1022.6 0.0
29/09:30pm 18.1 18.4 15.9 87 1.3 NW 9 11 5 6 1022.6 1022.6 0.0
29/09:00pm 18.3 18.5 15.7 85 1.5 NW 9 11 5 6 1022.5 1022.5 0.0
29/08:30pm 18.9 19.2 16.1 84 1.7 NW 9 11 5 6 1022.5 1022.5 0.0
29/08:00pm 18.7 19.0 16.1 85 1.5 WNW 9 13 5 7 1022.5 1022.5 0.0
29/07:30pm 19.4 20.4 16.4 83 1.8 WNW 6 7 3 4 1022.4 1022.4 0.0
29/07:00pm 20.9 21.2 16.9 78 2.4 NW 11 17 6 9 1022.3 1022.3 0.0
29/06:30pm 21.4 21.6 17.6 79 2.3 NNW 13 17 7 9 1022.0 1022.0 0.0
29/06:00pm 21.5 21.4 17.9 80 2.2 N 15 19 8 10 1021.8 1021.8 0.0
29/05:30pm 21.6 21.8 17.6 78 2.5 NNW 13 19 7 10 1021.7 1021.7 0.0
29/05:00pm 22.1 21.9 17.7 76 2.7 N 15 20 8 11 1021.6 1021.6 0.0
29/04:30pm 22.9 22.7 14.7 60 4.8 NW 9 13 5 7 1021.4 1021.4 0.0
29/04:00pm 23.5 23.4 15.0 59 5.1 WNW 9 13 5 7 1021.3 1021.3 0.0
29/03:30pm 24.1 22.2 14.2 54 5.8 NW 17 24 9 13 1020.8 1020.8 0.0
29/03:00pm 25.0 23.3 14.8 53 6.1 NNW 17 24 9 13 1020.7 1020.7 0.0
29/02:30pm 24.2 22.3 14.3 54 5.8 NNW 17 24 9 13 1020.6 1020.6 0.0
29/02:00pm 25.0 23.1 14.2 51 6.4 WNW 17 24 9 13 1020.9 1020.9 0.0
29/01:30pm 24.2 21.9 14.0 53 6.0 NW 19 26 10 14 1021.0 1021.0 0.0
29/01:00pm 24.8 23.3 14.3 52 6.2 WNW 15 24 8 13 1020.9 1020.9 0.0
29/12:30pm 24.6 22.4 14.4 53 6.0 NW 19 28 10 15 1021.0 1021.0 0.0
29/12:00pm 24.1 21.6 13.6 52 6.1 WNW 19 28 10 15 1021.7 1021.7 0.0
29/11:30am 24.4 22.5 14.2 53 6.0 NW 17 26 9 14 1022.2 1022.2 0.0
29/11:00am 24.0 22.5 14.1 54 5.8 NW 15 26 8 14 1022.8 1022.8 0.0
29/10:30am 23.5 22.0 15.3 60 4.9 NNW 17 28 9 15 1023.2 1023.2 0.0
29/10:00am 22.2 21.2 14.6 62 4.5 NW 13 20 7 11 1023.3 1023.3 0.0
29/09:30am 21.1 21.0 15.0 68 3.6 NNW 9 13 5 7 1023.7 1023.7 0.0
29/09:00am 20.0 19.8 14.8 72 3.0 WNW 9 13 5 7 1024.0 1024.0 0.0
29/08:30am 18.8 18.3 14.9 78 2.3 WNW 11 15 6 8 1023.9 1023.9 0.0
29/08:00am 17.8 17.5 14.3 80 2.0 NW 9 13 5 7 1023.7 1023.7 0.0
29/07:30am 17.2 17.9 15.7 91 0.9 WNW 6 9 3 5 1023.1 1023.1 0.0
29/07:00am 14.5 14.6 13.9 96 0.3 NW 6 13 3 7 1023.0 1023.0 0.0
29/06:30am 13.3 14.1 12.7 96 0.3 CALM 0 0 0 0 1022.8 1022.8 0.0
29/06:00am 13.6 14.5 13.0 96 0.3 CALM 0 0 0 0 1022.9 1022.9 0.0
29/05:30am 13.4 14.2 12.6 95 0.4 CALM 0 0 0 0 1022.8 1022.8 0.0
29/05:00am 14.1 14.8 13.3 95 0.4 WNW 2 6 1 3 1022.6 1022.6 0.0
29/04:30am 14.5 14.4 13.9 96 0.3 W 7 9 4 5 1022.6 1022.6 0.0
29/04:00am 14.4 15.6 13.8 96 0.3 CALM 0 0 0 0 1022.4 1022.4 0.0
29/03:30am 14.4 13.9 13.9 97 0.3 WSW 9 11 5 6 1022.5 1022.5 0.0
29/03:00am 13.9 13.6 13.3 96 0.3 WSW 7 9 4 5 1022.6 1022.6 0.0
29/02:30am 13.9 14.6 13.3 96 0.3 SSW 2 7 1 4 1022.4 1022.4 0.0
29/02:00am 14.5 15.0 14.0 97 0.3 SW 4 7 2 4 1022.8 1022.8 0.0
29/01:30am 13.9 13.6 13.3 96 0.3 WSW 7 9 4 5 1023.1 1023.1 0.0
29/01:00am 14.5 14.1 14.0 97 0.3 WSW 9 11 5 6 1023.4 1023.4 0.0
29/12:30am 14.0 13.7 13.2 95 0.4 WSW 7 7 4 4 1023.0 1023.0 0.0
29/12:00am 15.1 15.4 14.6 97 0.3 WSW 6 7 3 4 1023.4 1023.4 0.0
 
Date/Time
EST
Temp
°C
App
Temp
°C
Dew
Point
Rel
Hum
%
Delta-T
°C
Wind Press
QNH
hPa
Press
MSL
hPa
Rain
since 9 am
mm
Dir
 
Spd
km/h
Gust
km/h
Spd
kts
Gust
kts
28/11:30pm 15.0 16.4 14.5 97 0.3 CALM 0 0 0 0 1023.8 1023.8 0.0
28/11:00pm 15.1 14.5 14.6 97 0.3 WSW 11 13 6 7 1023.9 1023.9 0.0
28/10:30pm 15.1 15.8 14.5 96 0.3 SW 4 7 2 4 1023.8 1023.8 0.0
28/10:00pm 15.0 15.0 14.2 95 0.4 WSW 7 9 4 5 1024.0 1024.0 0.0
28/09:30pm 15.4 15.2 14.6 95 0.5 WSW 9 13 5 7 1024.1 1024.1 0.0
28/09:00pm 15.7 15.6 14.9 95 0.5 WSW 9 11 5 6 1024.2 1024.2 0.0
28/08:30pm 15.5 15.6 14.5 94 0.6 WSW 7 9 4 5 1023.7 1023.7 0.0
28/08:00pm 16.1 16.4 15.1 94 0.6 WSW 7 9 4 5 1023.7 1023.7 0.0
28/07:30pm 16.2 16.7 14.9 92 0.7 WSW 6 7 3 4 1023.4 1023.4 0.0
28/07:00pm 16.5 16.9 15.2 92 0.8 WSW 7 9 4 5 1023.4 1023.4 0.0
28/06:30pm 16.8 17.2 15.2 90 0.9 WSW 7 9 4 5 1023.1 1023.1 0.0
28/06:00pm 17.5 18.2 15.5 88 1.2 W 6 7 3 4 1022.9 1022.9 0.0
28/05:30pm 19.2 19.9 15.5 79 2.2 NNE 6 9 3 5 1022.8 1022.8 0.0
28/05:00pm 20.2 20.4 15.8 76 2.6 NNE 9 13 5 7 1022.1 1022.1 0.0
28/04:30pm 20.9 20.5 15.2 70 3.4 NNE 11 15 6 8 1021.9 1021.9 0.0
28/04:00pm 21.5 20.4 15.3 68 3.7 NNE 15 19 8 10 1021.9 1021.9 0.0
28/03:30pm 21.8 21.0 15.2 66 3.9 NNE 13 17 7 9 1021.9 1021.9 0.0
28/03:00pm 22.1 21.6 15.9 68 3.7 NE 13 17 7 9 1021.7 1021.7 0.0
28/02:30pm 22.2 21.5 16.5 70 3.5 ENE 15 20 8 11 1021.7 1021.7 0.0
28/02:00pm 22.1 20.8 15.9 68 3.7 ENE 17 20 9 11 1021.5 1021.5 0.0
28/01:30pm 22.5 21.0 15.4 64 4.2 NE 17 24 9 13 1022.1 1022.1 0.0
28/01:00pm 22.1 20.4 13.7 59 4.9 ENE 15 17 8 9 1022.2 1022.2 0.0
28/12:30pm 23.0 21.8 15.1 61 4.7 ENE 15 20 8 11 1022.9 1022.9 0.0
28/12:00pm 23.4 22.1 14.7 58 5.1 ENE 15 19 8 10 1023.5 1023.5 0.0
28/11:30am 23.4 22.6 15.2 60 4.9 NE 13 15 7 8 1023.7 1023.7 0.0
28/11:00am 23.0 23.0 14.3 58 5.1 WSW 7 11 4 6 1024.1 1024.1 0.0
28/10:30am 22.6 22.0 15.7 65 4.1 SSE 13 15 7 8 1024.5 1024.5 0.0
28/10:00am 21.7 21.1 14.6 64 4.2 SSE 11 13 6 7 1024.6 1024.6 0.0
28/09:30am 21.1 21.5 15.4 70 3.4 SSE 7 11 4 6 1024.4 1024.4 0.0
28/09:00am 19.6 20.6 15.3 76 2.5 SW 4 6 2 3 1024.3 1024.3 0.0
28/08:30am 17.9 18.5 15.2 84 1.6 SSW 6 9 3 5 1024.5 1024.5 0.0
28/08:00am 16.3 17.7 15.3 94 0.6 SW 2 7 1 4 1024.3 1024.3 0.0
28/07:30am 15.2 14.8 14.1 93 0.6 SW 9 13 5 7 1023.8 1023.8 0.0
28/07:00am 14.8 14.9 13.8 94 0.6 SSW 6 7 3 4 1023.5 1023.5 0.0
28/06:30am 14.8 14.7 14.0 95 0.4 SSW 7 7 4 4 1023.2 1023.2 0.0
28/06:00am 14.6 14.4 13.6 94 0.6 SW 7 9 4 5 1023.1 1023.1 0.0
28/05:30am 15.0 15.1 14.4 96 0.3 WSW 7 11 4 6 1022.9 1022.9 0.0
28/05:00am 15.2 15.6 14.7 97 0.3 SW 6 7 3 4 1022.6 1022.6 0.0
28/04:30am 14.9 16.3 14.4 97 0.3 CALM 0 0 0 0 1022.8 1022.8 0.0
28/04:00am 13.9 13.8 13.3 96 0.3 SW 6 7 3 4 1022.6 1022.6 0.0
28/03:30am 13.6 13.7 12.8 95 0.4 SW 4 7 2 4 1022.6 1022.6 0.0
28/03:00am 14.2 14.2 13.6 96 0.3 SW 6 7 3 4 1022.5 1022.5 0.0
28/02:30am 13.8 13.6 13.0 95 0.4 SW 6 7 3 4 1022.5 1022.5 0.0
28/02:00am 14.1 15.1 13.3 95 0.4 CALM 0 0 0 0 1022.6 1022.6 0.0
28/01:30am 14.1 14.4 13.3 95 0.4 SSW 4 7 2 4 1022.7 1022.7 0.0
28/01:00am 14.1 14.0 13.3 95 0.4 SSW 6 7 3 4 1023.1 1023.1 0.0
28/12:30am 14.3 14.6 13.3 94 0.6 SSW 4 7 2 4 1023.3 1023.3 0.0
28/12:00am 14.6 15.4 13.6 94 0.6 SSW 2 6 1 3 1023.3 1023.3 0.0
 
Date/Time
EST
Temp
°C
App
Temp
°C
Dew
Point
Rel
Hum
%
Delta-T
°C
Wind Press
QNH
hPa
Press
MSL
hPa
Rain
since 9 am
mm
Dir
 
Spd
km/h
Gust
km/h
Spd
kts
Gust
kts
27/11:30pm 14.8 14.9 13.8 94 0.6 SSW 6 7 3 4 1023.4 1023.4 0.0
27/11:00pm 14.6 15.7 13.5 93 0.6 CALM 0 6 0 3 1023.5 1023.5 0.0
27/10:30pm 14.6 14.6 13.6 94 0.6 SW 6 7 3 4 1023.3 1023.3 0.0
27/10:00pm 14.5 14.7 13.2 92 0.7 SW 4 6 2 3 1023.2 1023.2 0.0
27/09:30pm 14.8 14.6 13.7 93 0.6 SW 7 9 4 5 1023.5 1023.5 0.0
27/09:00pm 15.0 14.8 13.7 92 0.7 SW 7 11 4 6 1023.5 1023.5 0.0

Other Formats:

Comma delimited format used in spreadsheet applications
http://www.bom.gov.au/fwo/IDQ60801/IDQ60801.94592.axf

JavaScript Object Notation format (JSON) in row-major order
http://www.bom.gov.au/fwo/IDQ60801/IDQ60801.94592.json